createdAt,value
2019-06-26T00:01:46.051Z,6.13
2019-06-26T00:04:14.745Z,6.60
2019-06-26T00:06:43.323Z,7.43
2019-06-26T00:09:11.869Z,7.20
2019-06-26T00:11:40.446Z,6.53
2019-06-26T00:14:09.071Z,6.70
2019-06-26T00:16:37.894Z,6.10
2019-06-26T00:19:06.782Z,7.03
2019-06-26T00:21:35.469Z,6.73
2019-06-26T00:24:04.052Z,6.60
2019-06-26T00:26:32.640Z,6.67
2019-06-26T00:29:01.203Z,6.87
2019-06-26T00:31:29.794Z,6.43
2019-06-26T00:33:58.330Z,6.33
2019-06-26T00:36:26.911Z,7.27
2019-06-26T00:38:55.466Z,7.27
2019-06-26T00:41:24.186Z,7.10
2019-06-26T00:44:12.067Z,6.63
2019-06-26T00:46:40.643Z,7.20
2019-06-26T00:49:09.198Z,7.00
2019-06-26T00:51:37.776Z,7.70
2019-06-26T00:54:06.328Z,8.23
2019-06-26T00:56:35.347Z,7.77
2019-06-26T00:59:03.964Z,7.37
2019-06-26T01:01:32.552Z,8.47
2019-06-26T01:04:02.743Z,7.80
2019-06-26T01:06:38.781Z,8.17
2019-06-26T01:09:07.411Z,7.57
2019-06-26T01:11:36.024Z,7.67
2019-06-26T01:14:04.711Z,8.03
2019-06-26T01:16:33.292Z,8.10
2019-06-26T01:19:01.851Z,7.60
2019-06-26T01:21:30.504Z,7.67
2019-06-26T01:23:59.127Z,7.77
2019-06-26T01:26:27.717Z,7.70
2019-06-26T01:28:56.262Z,7.67
2019-06-26T01:31:24.836Z,7.67
2019-06-26T01:33:53.396Z,8.00
2019-06-26T01:36:21.979Z,7.90
2019-06-26T01:38:50.604Z,8.60
2019-06-26T01:41:19.195Z,7.27
2019-06-26T01:43:47.747Z,7.57
2019-06-26T01:46:16.333Z,7.70
2019-06-26T01:48:44.915Z,7.93
2019-06-26T01:51:13.500Z,7.57
2019-06-26T01:53:42.149Z,7.63
2019-06-26T01:56:10.661Z,6.93
2019-06-26T01:58:39.217Z,7.90
2019-06-26T02:01:07.760Z,7.53
2019-06-26T02:03:36.342Z,8.00
2019-06-26T02:06:04.824Z,8.20
2019-06-26T02:08:33.403Z,8.20
2019-06-26T02:11:01.955Z,8.00
2019-06-26T02:13:30.536Z,8.27
2019-06-26T02:15:59.100Z,7.80
2019-06-26T02:18:35.092Z,8.50
2019-06-26T02:21:03.714Z,7.57
2019-06-26T02:23:32.300Z,7.50
2019-06-26T02:26:00.860Z,8.57
2019-06-26T02:28:29.451Z,8.47
2019-06-26T02:30:58.005Z,8.33
2019-06-26T02:33:26.576Z,7.77
2019-06-26T02:35:55.233Z,8.90
2019-06-26T02:38:23.963Z,9.43
2019-06-26T02:40:52.648Z,8.97
2019-06-26T02:43:21.295Z,8.77
2019-06-26T02:45:49.844Z,8.33
2019-06-26T02:48:18.437Z,8.43
2019-06-26T02:50:46.988Z,8.40
2019-06-26T02:53:15.575Z,9.07
2019-06-26T02:55:44.189Z,8.70
2019-06-26T02:58:12.777Z,8.60
2019-06-26T03:00:41.364Z,8.67
2019-06-26T03:03:09.988Z,8.60
2019-06-26T03:05:38.542Z,8.00
2019-06-26T03:08:07.130Z,8.87
2019-06-26T03:10:35.793Z,9.27
2019-06-26T03:13:04.843Z,8.87
2019-06-26T03:15:33.503Z,8.63
2019-06-26T03:18:21.423Z,8.60
2019-06-26T03:20:57.811Z,9.07
2019-06-26T03:23:26.458Z,8.53
2019-06-26T03:25:55.184Z,9.33
2019-06-26T03:28:23.765Z,9.17
2019-06-26T03:30:52.401Z,9.30
2019-06-26T03:33:21.044Z,8.30
2019-06-26T03:35:49.604Z,8.67
2019-06-26T03:38:18.185Z,8.40
2019-06-26T03:40:46.744Z,9.10
2019-06-26T03:43:15.330Z,9.37
2019-06-26T03:45:43.879Z,9.03
2019-06-26T03:48:12.456Z,9.53
2019-06-26T03:50:41.009Z,9.00
2019-06-26T03:53:09.634Z,9.23
2019-06-26T03:55:38.183Z,9.37
2019-06-26T03:58:06.847Z,9.00
2019-06-26T04:00:43.012Z,8.90
2019-06-26T04:03:11.715Z,8.93
2019-06-26T04:05:40.340Z,8.90
2019-06-26T04:08:08.927Z,9.20
2019-06-26T04:10:37.553Z,8.83
2019-06-26T04:13:06.503Z,8.53
2019-06-26T04:15:42.274Z,8.53
2019-06-26T04:18:05.553Z,8.50
2019-06-26T04:20:34.186Z,8.80
2019-06-26T04:23:02.819Z,8.93
2019-06-26T04:25:31.402Z,9.60
2019-06-26T04:27:59.983Z,9.00
2019-06-26T04:30:28.607Z,9.70
2019-06-26T04:32:57.178Z,9.77
2019-06-26T04:35:45.134Z,9.80
2019-06-26T04:38:13.660Z,9.97
2019-06-26T04:40:42.380Z,8.73
2019-06-26T04:43:10.963Z,8.80
2019-06-26T04:45:39.519Z,8.97
2019-06-26T04:48:08.100Z,9.47
2019-06-26T04:50:36.655Z,9.70
2019-06-26T04:53:05.514Z,9.67
2019-06-26T04:55:34.136Z,9.40
2019-06-26T04:58:02.731Z,9.27
2019-06-26T05:00:31.280Z,8.90
2019-06-26T05:02:59.876Z,9.43
2019-06-26T05:05:39.154Z,9.67
2019-06-26T05:07:58.651Z,8.37
2019-06-26T05:10:27.218Z,8.10
2019-06-26T05:12:55.809Z,8.40
2019-06-26T05:15:24.419Z,8.40
2019-06-26T05:17:53.077Z,8.63
2019-06-26T05:20:21.696Z,8.97
2019-06-26T05:22:50.280Z,9.60
2019-06-26T05:25:19.215Z,12.10
2019-06-26T05:27:47.896Z,10.10
2019-06-26T05:30:16.795Z,13.37
2019-06-26T05:32:45.604Z,11.93
2019-06-26T05:35:14.961Z,13.67
2019-06-26T05:37:43.535Z,10.50
2019-06-26T05:40:14.136Z,11.47
2019-06-26T05:42:42.796Z,11.93
2019-06-26T05:45:12.289Z,14.57
2019-06-26T05:47:40.943Z,11.13
2019-06-26T05:50:13.025Z,12.40
2019-06-26T05:52:48.878Z,13.00
2019-06-26T05:55:14.846Z,11.10
2019-06-26T05:57:43.431Z,14.97
2019-06-26T06:00:12.961Z,12.07
2019-06-26T06:02:41.692Z,10.20
2019-06-26T06:05:10.891Z,9.40
2019-06-26T06:07:39.707Z,10.50
2019-06-26T06:10:09.157Z,11.33
2019-06-26T06:12:37.692Z,11.13
2019-06-26T06:15:11.038Z,12.03
2019-06-26T06:17:39.627Z,10.50
2019-06-26T06:20:29.057Z,9.73
2019-06-26T06:22:57.729Z,12.10
2019-06-26T06:25:26.296Z,9.77
2019-06-26T06:28:17.581Z,9.33
2019-06-26T06:30:46.152Z,10.17
2019-06-26T06:33:14.765Z,11.33
2019-06-26T06:35:43.322Z,11.20
2019-06-26T06:38:11.909Z,11.13
2019-06-26T06:40:40.659Z,11.80
2019-06-26T06:43:09.256Z,11.50
2019-06-26T06:45:37.884Z,11.17
2019-06-26T06:48:06.552Z,10.83
2019-06-26T06:50:35.119Z,11.47
2019-06-26T06:53:03.792Z,10.50
2019-06-26T06:55:51.776Z,10.60
2019-06-26T06:58:22.486Z,10.80
2019-06-26T07:00:52.791Z,10.47
2019-06-26T07:03:23.583Z,10.80
2019-06-26T07:05:52.579Z,9.97
2019-06-26T07:08:21.156Z,9.33
2019-06-26T07:10:49.939Z,9.73
2019-06-26T07:13:18.585Z,8.97
2019-06-26T07:15:49.080Z,9.83
2019-06-26T07:18:17.585Z,9.57
2019-06-26T07:20:46.943Z,9.27
2019-06-26T07:23:15.529Z,8.60
2019-06-26T07:25:44.089Z,9.43
2019-06-26T07:28:12.799Z,9.30
2019-06-26T07:30:41.488Z,9.17
2019-06-26T07:33:10.071Z,9.53
2019-06-26T07:35:38.630Z,8.50
2019-06-26T07:38:08.084Z,9.47
2019-06-26T07:41:00.018Z,8.77
2019-06-26T07:43:43.517Z,9.27
2019-06-26T07:46:14.217Z,9.20
2019-06-26T07:48:44.768Z,9.77
2019-06-26T07:51:35.032Z,9.00
2019-06-26T07:54:03.632Z,8.43
2019-06-26T07:56:32.205Z,8.20
2019-06-26T07:59:00.806Z,7.87
2019-06-26T08:01:48.685Z,7.73
2019-06-26T08:04:17.304Z,7.73
2019-06-26T08:06:46.585Z,7.50
2019-06-26T08:09:15.267Z,6.40
2019-06-26T08:11:43.831Z,5.90
2019-06-26T08:14:12.408Z,6.63
2019-06-26T08:16:40.964Z,6.50
2019-06-26T08:19:09.564Z,6.37
2019-06-26T08:21:38.120Z,5.57
2019-06-26T08:24:06.716Z,5.40
2019-06-26T08:26:36.621Z,6.13
2019-06-26T08:29:05.875Z,5.30
2019-06-26T08:31:34.589Z,5.57
2019-06-26T08:34:04.243Z,5.57
2019-06-26T08:36:34.167Z,5.50
2019-06-26T08:39:03.515Z,5.13
2019-06-26T08:41:32.693Z,5.13
2019-06-26T08:44:03.421Z,5.40
2019-06-26T08:46:33.341Z,5.50
2019-06-26T08:49:04.357Z,5.67
2019-06-26T08:51:33.360Z,5.77
2019-06-26T08:54:04.937Z,5.50
2019-06-26T08:56:33.964Z,5.70
2019-06-26T08:59:03.122Z,6.33
2019-06-26T09:01:31.979Z,6.13
2019-06-26T09:04:00.985Z,6.23
2019-06-26T09:06:29.731Z,5.30
2019-06-26T09:08:58.746Z,5.27
2019-06-26T09:11:28.040Z,5.03
2019-06-26T09:13:56.869Z,5.70
2019-06-26T09:16:25.616Z,5.43
2019-06-26T09:18:54.901Z,4.93
2019-06-26T09:21:23.751Z,5.10
2019-06-26T09:23:52.800Z,5.83
2019-06-26T09:26:21.506Z,4.83
2019-06-26T09:28:52.363Z,5.27
2019-06-26T09:31:23.181Z,4.80
2019-06-26T09:33:52.069Z,4.80
2019-06-26T09:36:21.123Z,5.10
2019-06-26T09:38:49.896Z,4.70
2019-06-26T09:41:18.738Z,4.90
2019-06-26T09:43:47.842Z,4.77
2019-06-26T09:46:16.643Z,5.10
2019-06-26T09:48:52.602Z,5.13
2019-06-26T09:51:16.752Z,5.17
2019-06-26T09:53:47.844Z,4.90
2019-06-26T09:56:16.165Z,4.93
2019-06-26T09:58:44.747Z,4.83
2019-06-26T10:01:13.304Z,4.30
2019-06-26T10:03:45.153Z,4.40
2019-06-26T10:06:12.095Z,4.63
2019-06-26T10:08:40.680Z,5.00
2019-06-26T10:11:09.246Z,4.43
2019-06-26T10:13:37.821Z,5.13
2019-06-26T10:16:06.401Z,4.67
2019-06-26T10:18:35.024Z,4.70
2019-06-26T10:21:03.574Z,4.30
2019-06-26T10:23:32.172Z,4.87
2019-06-26T10:26:00.740Z,4.30
2019-06-26T10:28:29.384Z,4.37
2019-06-26T10:30:57.939Z,4.43
2019-06-26T10:33:26.523Z,4.77
2019-06-26T10:35:55.145Z,4.40
2019-06-26T10:38:23.724Z,4.33
2019-06-26T10:40:52.278Z,4.20
2019-06-26T10:43:20.857Z,4.00
2019-06-26T10:45:49.484Z,4.00
2019-06-26T10:48:18.070Z,3.80
2019-06-26T10:50:51.829Z,4.57
2019-06-26T10:53:17.085Z,4.00
2019-06-26T10:55:45.667Z,4.00
2019-06-26T10:58:14.233Z,4.30
2019-06-26T11:00:42.819Z,5.00
2019-06-26T11:03:11.483Z,4.57
2019-06-26T11:05:42.328Z,4.23
2019-06-26T11:08:10.883Z,4.43
2019-06-26T11:10:40.431Z,4.63
2019-06-26T11:13:08.995Z,3.93
2019-06-26T11:15:37.579Z,4.40
2019-06-26T11:18:06.211Z,3.97
2019-06-26T11:20:34.856Z,4.33
2019-06-26T11:23:03.482Z,4.10
2019-06-26T11:25:32.066Z,4.57
2019-06-26T11:28:00.620Z,4.20
2019-06-26T11:30:30.392Z,4.10
2019-06-26T11:32:59.784Z,4.50
2019-06-26T11:35:28.497Z,4.37
2019-06-26T11:37:59.443Z,5.10
2019-06-26T11:40:28.176Z,4.70
2019-06-26T11:42:57.832Z,4.77
2019-06-26T11:45:26.600Z,4.70
2019-06-26T11:47:55.158Z,4.60
2019-06-26T11:50:24.313Z,4.50
2019-06-26T11:52:53.039Z,4.73
2019-06-26T11:55:22.048Z,4.37
2019-06-26T11:57:50.614Z,4.90
2019-06-26T12:00:23.658Z,4.73
2019-06-26T12:02:53.326Z,4.77
2019-06-26T12:05:22.187Z,4.57
2019-06-26T12:07:50.748Z,4.87
2019-06-26T12:10:19.979Z,5.33
2019-06-26T12:12:48.535Z,4.57
2019-06-26T12:15:19.393Z,4.97
2019-06-26T12:17:47.890Z,4.87
2019-06-26T12:20:19.579Z,4.87
2019-06-26T12:22:47.375Z,4.47
2019-06-26T12:25:16.094Z,4.57
2019-06-26T12:27:44.789Z,4.50
2019-06-26T12:30:13.916Z,4.43
2019-06-26T12:32:57.902Z,5.20
2019-06-26T12:35:13.695Z,5.07
2019-06-26T12:37:42.256Z,4.90
2019-06-26T12:40:12.984Z,4.97
2019-06-26T12:42:41.545Z,4.70
2019-06-26T12:45:10.782Z,4.80
2019-06-26T12:47:39.409Z,5.17
2019-06-26T12:50:09.900Z,5.30
2019-06-26T12:52:38.464Z,5.50
2019-06-26T12:55:07.495Z,5.33
2019-06-26T12:57:36.276Z,5.77
2019-06-26T13:00:28.497Z,4.53
2019-06-26T13:02:58.030Z,4.67
2019-06-26T13:05:47.577Z,4.77
2019-06-26T13:08:37.635Z,4.30
2019-06-26T13:11:06.263Z,5.13
2019-06-26T13:13:34.819Z,5.03
2019-06-26T13:16:03.474Z,4.73
2019-06-26T13:18:32.021Z,5.20
2019-06-26T13:21:00.608Z,5.00
2019-06-26T13:23:29.256Z,5.37
2019-06-26T13:25:57.899Z,5.00
2019-06-26T13:28:26.444Z,4.97
2019-06-26T13:30:55.029Z,5.30
2019-06-26T13:33:23.733Z,5.20
2019-06-26T13:35:52.392Z,4.53
2019-06-26T13:38:21.070Z,5.57
2019-06-26T13:41:08.984Z,5.27
2019-06-26T13:43:37.546Z,4.73
2019-06-26T13:46:06.132Z,5.37
2019-06-26T13:48:34.692Z,5.90
2019-06-26T13:51:09.421Z,4.73
2019-06-26T13:53:33.744Z,4.77
2019-06-26T13:56:02.771Z,5.47
2019-06-26T13:58:31.327Z,5.30
2019-06-26T14:00:59.905Z,5.37
2019-06-26T14:03:28.467Z,5.50
2019-06-26T14:05:57.065Z,5.67
2019-06-26T14:08:25.609Z,5.10
2019-06-26T14:10:54.199Z,5.10
2019-06-26T14:13:22.748Z,6.07
2019-06-26T14:15:51.411Z,5.10
2019-06-26T14:18:19.955Z,5.60
2019-06-26T14:20:48.539Z,5.60
2019-06-26T14:23:17.099Z,5.23
2019-06-26T14:25:45.748Z,5.47
2019-06-26T14:28:14.255Z,5.53
2019-06-26T14:30:43.523Z,5.33
2019-06-26T14:33:12.068Z,5.10
2019-06-26T14:35:40.665Z,5.50
2019-06-26T14:38:09.211Z,5.37
2019-06-26T14:40:37.793Z,5.63
2019-06-26T14:43:06.353Z,6.97
2019-06-26T14:45:34.940Z,5.80
2019-06-26T14:48:03.491Z,5.17
2019-06-26T14:50:32.047Z,5.53
2019-06-26T14:53:00.724Z,5.20
2019-06-26T14:55:29.291Z,5.20
2019-06-26T14:57:57.938Z,5.30
2019-06-26T15:00:26.581Z,5.20
2019-06-26T15:02:55.157Z,6.23
2019-06-26T15:05:23.850Z,5.40
2019-06-26T15:07:52.434Z,4.63
2019-06-26T15:10:21.317Z,4.83
2019-06-26T15:12:49.903Z,5.00
2019-06-26T15:15:19.611Z,5.47
2019-06-26T15:17:48.187Z,5.43
2019-06-26T15:20:17.379Z,6.07
2019-06-26T15:22:46.035Z,5.27
2019-06-26T15:25:15.123Z,5.00
2019-06-26T15:27:43.779Z,5.20
2019-06-26T15:30:12.768Z,5.60
2019-06-26T15:32:41.356Z,5.93
2019-06-26T15:35:30.760Z,5.57
2019-06-26T15:37:59.347Z,5.37
2019-06-26T15:40:27.941Z,5.30
2019-06-26T15:43:15.892Z,5.27
2019-06-26T15:45:44.452Z,5.70
2019-06-26T15:48:13.037Z,5.60
2019-06-26T15:50:41.588Z,4.77
2019-06-26T15:53:10.169Z,5.47
2019-06-26T15:55:58.064Z,5.40
2019-06-26T15:58:26.649Z,5.30
2019-06-26T16:00:55.203Z,5.97
2019-06-26T16:03:23.785Z,5.30
2019-06-26T16:05:52.345Z,5.40
2019-06-26T16:08:20.930Z,5.30
2019-06-26T16:10:49.485Z,5.37
2019-06-26T16:13:18.082Z,5.53
2019-06-26T16:15:46.631Z,5.40
2019-06-26T16:18:45.241Z,5.20
2019-06-26T16:21:14.552Z,5.00
2019-06-26T16:23:43.134Z,5.37
2019-06-26T16:26:11.759Z,5.37
2019-06-26T16:28:40.348Z,5.30
2019-06-26T16:31:08.968Z,6.23
2019-06-26T16:33:37.555Z,5.77
2019-06-26T16:36:06.254Z,5.23
2019-06-26T16:38:34.836Z,5.83
2019-06-26T16:41:03.539Z,5.40
2019-06-26T16:43:32.132Z,5.70
2019-06-26T16:46:00.698Z,5.40
2019-06-26T16:48:29.275Z,5.43
2019-06-26T16:50:57.877Z,5.07
2019-06-26T16:53:26.463Z,6.20
2019-06-26T16:55:55.015Z,5.50
2019-06-26T16:58:23.595Z,5.30
2019-06-26T17:00:52.166Z,5.40
2019-06-26T17:03:20.748Z,4.93
2019-06-26T17:05:49.307Z,5.60
2019-06-26T17:08:37.231Z,5.53
2019-06-26T17:11:05.919Z,5.57
2019-06-26T17:13:34.572Z,5.40
2019-06-26T17:16:24.955Z,5.70
2019-06-26T17:18:54.480Z,5.07
2019-06-26T17:21:23.278Z,5.90
2019-06-26T17:23:51.855Z,4.93
2019-06-26T17:26:20.408Z,5.70
2019-06-26T17:28:48.991Z,5.70
2019-06-26T17:31:17.618Z,5.80
2019-06-26T17:33:46.199Z,5.50
2019-06-26T17:36:14.757Z,5.67
2019-06-26T17:38:43.341Z,5.67
2019-06-26T17:41:11.890Z,4.90
2019-06-26T17:43:40.480Z,5.70
2019-06-26T17:46:09.035Z,5.20
2019-06-26T17:48:37.623Z,5.40
2019-06-26T17:51:06.189Z,6.33
2019-06-26T17:53:34.771Z,5.60
2019-06-26T17:56:03.337Z,5.30
2019-06-26T17:58:31.919Z,5.43
2019-06-26T18:01:00.483Z,5.47
2019-06-26T18:03:29.140Z,5.90
2019-06-26T18:05:57.691Z,5.70
2019-06-26T18:08:26.223Z,5.50
2019-06-26T18:10:54.768Z,6.13
2019-06-26T18:13:23.351Z,6.37
2019-06-26T18:15:51.913Z,6.23
2019-06-26T18:18:22.367Z,7.17
2019-06-26T18:20:50.948Z,6.90
2019-06-26T18:23:19.533Z,8.93
2019-06-26T18:25:54.135Z,10.97
2019-06-26T18:28:22.157Z,6.93
2019-06-26T18:30:50.763Z,7.77
2019-06-26T18:33:19.295Z,7.50
2019-06-26T18:35:47.848Z,9.33
2019-06-26T18:38:36.293Z,8.43
2019-06-26T18:41:04.840Z,7.33
2019-06-26T18:43:33.432Z,6.00
2019-06-26T18:46:01.994Z,6.37
2019-06-26T18:48:30.581Z,6.77
2019-06-26T18:50:59.133Z,6.43
2019-06-26T18:53:27.714Z,6.93
2019-06-26T18:55:56.268Z,6.63
2019-06-26T18:58:24.859Z,7.73
2019-06-26T19:00:53.421Z,7.13
2019-06-26T19:03:21.991Z,6.23
2019-06-26T19:05:51.074Z,7.20
2019-06-26T19:08:19.672Z,5.83
2019-06-26T19:10:48.228Z,7.20
2019-06-26T19:13:20.092Z,7.17
2019-06-26T19:15:47.019Z,7.27
2019-06-26T19:18:15.603Z,7.43
2019-06-26T19:20:44.163Z,7.10
2019-06-26T19:23:12.715Z,7.50
2019-06-26T19:25:41.315Z,6.63
2019-06-26T19:28:09.867Z,6.30
2019-06-26T19:30:38.447Z,7.40
2019-06-26T19:33:07.140Z,7.50
2019-06-26T19:35:35.809Z,7.00
2019-06-26T19:38:04.438Z,7.40
2019-06-26T19:40:33.016Z,7.20
2019-06-26T19:43:01.567Z,7.40
2019-06-26T19:45:30.159Z,6.87
2019-06-26T19:47:58.846Z,7.70
2019-06-26T19:50:27.411Z,7.83
2019-06-26T19:52:56.423Z,8.00
2019-06-26T19:55:24.963Z,8.10
2019-06-26T19:57:53.528Z,8.40
2019-06-26T20:00:22.171Z,8.23
2019-06-26T20:02:50.731Z,8.70
2019-06-26T20:05:19.367Z,9.40
2019-06-26T20:07:47.930Z,8.03
2019-06-26T20:10:16.968Z,9.13
2019-06-26T20:12:45.527Z,10.13
2019-06-26T20:15:14.268Z,9.23
2019-06-26T20:17:42.821Z,9.53
2019-06-26T20:20:11.639Z,9.53
2019-06-26T20:22:40.195Z,9.07
2019-06-26T20:25:09.627Z,9.27
2019-06-26T20:27:38.331Z,9.77
2019-06-26T20:30:10.055Z,9.47
2019-06-26T20:32:38.908Z,10.00
2019-06-26T20:35:07.659Z,9.70
2019-06-26T20:37:36.292Z,9.67
2019-06-26T20:40:07.376Z,9.13
2019-06-26T20:42:35.931Z,9.63
2019-06-26T20:45:08.300Z,9.50
2019-06-26T20:47:37.315Z,9.80
2019-06-26T20:50:06.859Z,9.67
2019-06-26T20:52:35.407Z,9.53
2019-06-26T20:55:05.936Z,10.00
2019-06-26T20:57:35.675Z,9.00
2019-06-26T21:00:06.643Z,9.23
2019-06-26T21:02:35.199Z,8.80
2019-06-26T21:05:05.320Z,8.93
2019-06-26T21:07:33.877Z,8.33
2019-06-26T21:10:02.552Z,9.10
2019-06-26T21:12:31.700Z,9.20
2019-06-26T21:15:00.404Z,9.20
2019-06-26T21:17:28.929Z,9.53
2019-06-26T21:19:57.516Z,9.27
2019-06-26T21:22:26.075Z,9.03
2019-06-26T21:24:54.663Z,9.40
2019-06-26T21:27:23.356Z,9.27
2019-06-26T21:29:51.974Z,9.23
2019-06-26T21:32:20.521Z,8.77
2019-06-26T21:34:49.107Z,9.00
2019-06-26T21:37:17.668Z,9.10
2019-06-26T21:39:46.326Z,9.10
2019-06-26T21:42:14.879Z,9.47
2019-06-26T21:44:43.463Z,9.87
2019-06-26T21:47:12.024Z,8.93
2019-06-26T21:49:40.606Z,8.93
2019-06-26T21:52:09.168Z,10.03
2019-06-26T21:54:38.024Z,9.07
2019-06-26T21:57:09.298Z,10.00
2019-06-26T21:59:36.816Z,9.53
2019-06-26T22:02:05.652Z,9.43
2019-06-26T22:04:34.269Z,9.70
2019-06-26T22:07:02.800Z,9.40
2019-06-26T22:09:31.380Z,10.47
2019-06-26T22:12:03.143Z,9.73
2019-06-26T22:14:32.010Z,9.77
2019-06-26T22:17:00.563Z,9.83
2019-06-26T22:19:29.115Z,9.90
2019-06-26T22:21:57.703Z,10.20
2019-06-26T22:24:26.264Z,10.30
2019-06-26T22:26:54.918Z,9.80
2019-06-26T22:29:25.164Z,9.40
2019-06-26T22:31:53.793Z,10.53
2019-06-26T22:34:22.351Z,9.20
2019-06-26T22:37:13.018Z,9.87
2019-06-26T22:39:41.627Z,10.20
2019-06-26T22:42:30.400Z,10.00
2019-06-26T22:44:59.019Z,9.67
2019-06-26T22:47:27.570Z,9.83
2019-06-26T22:49:56.156Z,9.53
2019-06-26T22:52:24.711Z,9.63
2019-06-26T22:54:53.471Z,9.90
2019-06-26T22:57:22.028Z,10.90
2019-06-26T22:59:50.616Z,10.37
2019-06-26T23:02:19.248Z,10.00
2019-06-26T23:04:47.811Z,10.17
2019-06-26T23:07:16.409Z,10.07
2019-06-26T23:09:44.969Z,10.90
2019-06-26T23:12:13.629Z,10.30
2019-06-26T23:14:43.757Z,10.83
2019-06-26T23:17:12.408Z,10.47
2019-06-26T23:19:40.969Z,10.77
2019-06-26T23:22:09.559Z,10.60
2019-06-26T23:24:38.119Z,11.47
2019-06-26T23:27:06.750Z,11.17
2019-06-26T23:29:35.272Z,11.37
2019-06-26T23:32:04.052Z,11.40
2019-06-26T23:34:32.612Z,11.47
2019-06-26T23:37:01.206Z,12.03
2019-06-26T23:39:29.770Z,12.13
2019-06-26T23:41:58.357Z,11.60
2019-06-26T23:44:26.920Z,12.03
2019-06-26T23:46:55.524Z,11.27
2019-06-26T23:49:24.087Z,12.17
2019-06-26T23:51:52.754Z,12.20
2019-06-26T23:54:24.196Z,11.93
2019-06-26T23:56:52.810Z,12.10
2019-06-26T23:59:21.412Z,12.20
